Time;durP1;ratioP1;P1;durP2;ratioP2;P2;SDS_P1;SDS_P2;PMS_P1;PMS_P2;Temp;Humidity;BMP_temperature;BMP_pressure;BME280_temperature;BME280_humidity;BME280_pressure;Samples;Min_cycle;Max_cycle;Signal;HPM_P1;HPM_P2
2022/03/15 00:01:06;;;;;;;27.35;11.02;;;;;;;;;;6287244;22;20007;-83
2022/03/15 00:03:58;;;;;;;24.33;10.48;;;;;;;;;;6258321;22;20717;-83
2022/03/15 00:06:28;;;;;;;35.05;12.32;;;;;;;;;;6263704;22;20094;-83
2022/03/15 00:09:00;;;;;;;26.10;10.13;;;;;;;;;;6289528;22;20011;-83
2022/03/15 00:12:20;;;;;;;27.80;10.25;;;;;;;;;;6303489;22;20038;-83
2022/03/15 00:14:51;;;;;;;29.77;10.30;;;;;;;;;;6251264;22;20065;-84
2022/03/15 00:17:20;;;;;;;25.25;10.30;;;;;;;;;;6287359;22;20026;-83
2022/03/15 00:19:54;;;;;;;24.02;8.48;;;;;;;;;;6254433;22;20114;-83
2022/03/15 00:22:35;;;;;;;23.45;8.98;;;;;;;;;;6328284;22;20075;-83
2022/03/15 00:25:18;;;;;;;24.73;9.40;;;;;;;;;;6293247;22;20122;-83
2022/03/15 00:27:48;;;;;;;22.52;9.95;;;;;;;;;;6316074;22;20015;-83
2022/03/15 00:30:34;;;;;;;24.58;9.70;;;;;;;;;;6271284;22;20075;-83
2022/03/15 00:33:30;;;;;;;31.55;9.80;;;;;;;;;;6228804;22;20022;-83
2022/03/15 00:36:01;;;;;;;26.15;8.50;;;;;;;;;;6276833;22;20019;-83
2022/03/15 00:38:35;;;;;;;24.00;9.18;;;;;;;;;;6276776;22;20701;-84
2022/03/15 00:41:28;;;;;;;18.45;8.10;;;;;;;;;;6229430;22;20019;-83
2022/03/15 00:44:05;;;;;;;24.48;8.75;;;;;;;;;;6253840;22;20023;-83
2022/03/15 00:46:32;;;;;;;21.10;8.60;;;;;;;;;;6251985;22;20047;-83
2022/03/15 00:49:11;;;;;;;24.67;8.85;;;;;;;;;;6253741;22;20089;-84
2022/03/15 00:52:13;;;;;;;22.60;8.27;;;;;;;;;;6280542;22;20027;-83
2022/03/15 00:54:40;;;;;;;31.55;9.95;;;;;;;;;;6287570;22;20023;-84
2022/03/15 00:57:08;;;;;;;26.45;9.80;;;;;;;;;;6277510;22;20430;-84
2022/03/15 00:59:38;;;;;;;22.35;9.45;;;;;;;;;;6281365;22;20126;-83
2022/03/15 01:02:31;;;;;;;21.58;8.77;;;;;;;;;;6260607;22;20027;-84
2022/03/15 01:04:58;;;;;;;24.83;10.77;;;;;;;;;;6281223;22;20097;-84
2022/03/15 01:07:26;;;;;;;22.13;8.80;;;;;;;;;;6288331;22;20029;-83
2022/03/15 01:09:56;;;;;;;23.85;9.82;;;;;;;;;;6290693;22;20019;-84
2022/03/15 01:12:26;;;;;;;25.52;10.38;;;;;;;;;;6253185;22;20034;-84
2022/03/15 01:14:54;;;;;;;23.60;9.38;;;;;;;;;;6288156;22;20019;-84
2022/03/15 01:17:22;;;;;;;22.13;9.05;;;;;;;;;;6286928;22;20038;-84
2022/03/15 01:19:50;;;;;;;25.17;9.45;;;;;;;;;;6290570;22;20129;-83
2022/03/15 01:22:20;;;;;;;20.08;9.05;;;;;;;;;;6280989;22;20023;-84
2022/03/15 01:24:48;;;;;;;24.60;9.70;;;;;;;;;;6280531;22;20026;-84
2022/03/15 01:27:16;;;;;;;24.35;9.60;;;;;;;;;;6281040;22;20019;-83
2022/03/15 01:29:44;;;;;;;25.27;9.38;;;;;;;;;;6258023;22;20034;-84
2022/03/15 01:32:19;;;;;;;27.02;10.15;;;;;;;;;;6254728;22;20748;-83
2022/03/15 01:34:48;;;;;;;25.30;9.63;;;;;;;;;;6262951;22;20081;-83
2022/03/15 01:37:18;;;;;;;24.63;11.20;;;;;;;;;;6288572;22;20098;-83
2022/03/15 01:39:47;;;;;;;28.23;10.55;;;;;;;;;;6255761;22;20019;-83
2022/03/15 01:42:18;;;;;;;30.77;11.43;;;;;;;;;;6253052;22;20098;-83
2022/03/15 01:44:47;;;;;;;28.17;11.43;;;;;;;;;;6252070;22;20023;-83
2022/03/15 01:47:17;;;;;;;26.38;10.48;;;;;;;;;;6227571;22;20018;-84
2022/03/15 01:49:47;;;;;;;25.75;11.13;;;;;;;;;;6253420;22;20034;-83
2022/03/15 01:52:20;;;;;;;27.65;11.00;;;;;;;;;;6227973;22;20095;-83
2022/03/15 01:54:50;;;;;;;38.35;11.10;;;;;;;;;;6262556;22;20114;-83
2022/03/15 01:57:18;;;;;;;33.05;11.93;;;;;;;;;;6261996;22;20016;-83
2022/03/15 01:59:48;;;;;;;32.72;11.43;;;;;;;;;;6265716;22;20023;-83
2022/03/15 02:02:18;;;;;;;30.08;10.15;;;;;;;;;;6255630;22;20053;-83
2022/03/15 02:04:46;;;;;;;30.20;11.07;;;;;;;;;;6291740;22;20041;-83
2022/03/15 02:07:14;;;;;;;31.90;11.55;;;;;;;;;;6266005;22;20015;-84
2022/03/15 02:09:49;;;;;;;39.20;11.82;;;;;;;;;;6266998;22;20019;-83
2022/03/15 02:12:28;;;;;;;27.92;11.35;;;;;;;;;;6269954;22;20080;-83
2022/03/15 02:15:01;;;;;;;30.30;11.10;;;;;;;;;;6280559;22;20031;-84
2022/03/15 02:17:28;;;;;;;35.45;12.50;;;;;;;;;;6254133;22;20019;-83
2022/03/15 02:19:58;;;;;;;32.75;11.23;;;;;;;;;;6266363;22;20102;-83
2022/03/15 02:22:33;;;;;;;36.70;11.90;;;;;;;;;;6253653;22;20027;-83
2022/03/15 02:25:04;;;;;;;36.35;12.77;;;;;;;;;;6287319;22;20020;-84
2022/03/15 02:27:32;;;;;;;38.15;13.10;;;;;;;;;;6250856;22;20537;-84
2022/03/15 02:30:01;;;;;;;42.03;12.13;;;;;;;;;;6253668;22;20026;-83
2022/03/15 02:32:32;;;;;;;35.83;12.68;;;;;;;;;;6251868;22;20030;-83
2022/03/15 02:35:00;;;;;;;38.47;12.10;;;;;;;;;;6260843;22;20025;-83
2022/03/15 02:37:28;;;;;;;43.92;13.32;;;;;;;;;;6261046;22;20821;-83
2022/03/15 02:39:58;;;;;;;37.25;11.63;;;;;;;;;;6281269;22;20011;-83
2022/03/15 02:42:32;;;;;;;29.20;12.35;;;;;;;;;;6251719;22;20033;-83
2022/03/15 02:45:00;;;;;;;38.15;10.98;;;;;;;;;;6262406;22;20070;-83
2022/03/15 02:47:28;;;;;;;37.95;12.88;;;;;;;;;;6271769;22;20019;-83
2022/03/15 02:49:58;;;;;;;38.42;12.73;;;;;;;;;;6298846;22;20390;-83
2022/03/15 02:52:32;;;;;;;30.55;10.75;;;;;;;;;;6252507;22;20728;-83
2022/03/15 02:55:00;;;;;;;39.85;11.98;;;;;;;;;;6285911;22;20018;-83
2022/03/15 02:57:28;;;;;;;36.53;11.80;;;;;;;;;;6275454;22;20038;-84
2022/03/15 02:59:59;;;;;;;35.15;11.95;;;;;;;;;;6289414;22;20029;-85
2022/03/15 03:02:35;;;;;;;45.05;12.98;;;;;;;;;;6254057;22;20038;-84
2022/03/15 03:05:04;;;;;;;31.27;12.40;;;;;;;;;;6288378;22;20322;-84
2022/03/15 03:07:36;;;;;;;36.28;12.63;;;;;;;;;;6277639;22;20023;-83
2022/03/15 03:10:05;;;;;;;34.83;13.38;;;;;;;;;;6254352;22;20088;-83
2022/03/15 03:12:36;;;;;;;39.38;13.73;;;;;;;;;;6250447;22;20046;-83
2022/03/15 03:15:03;;;;;;;35.00;12.98;;;;;;;;;;6260751;22;20015;-84
2022/03/15 03:17:31;;;;;;;46.78;14.32;;;;;;;;;;6285753;22;20429;-83
2022/03/15 03:20:18;;;;;;;39.80;13.25;;;;;;;;;;6253319;22;20030;-82
2022/03/15 03:23:21;;;;;;;38.33;13.13;;;;;;;;;;6276483;22;20034;-83
2022/03/15 03:25:51;;;;;;;32.20;13.95;;;;;;;;;;6252214;22;20015;-84
2022/03/15 03:28:21;;;;;;;34.45;13.93;;;;;;;;;;6288382;22;20030;-83
2022/03/15 03:30:57;;;;;;;30.95;12.60;;;;;;;;;;6252632;22;20024;-83
2022/03/15 03:33:43;;;;;;;37.08;12.70;;;;;;;;;;6250209;22;20023;-83
2022/03/15 03:36:11;;;;;;;38.50;13.07;;;;;;;;;;6289467;22;20015;-83
2022/03/15 03:38:41;;;;;;;36.42;12.95;;;;;;;;;;6228222;22;20019;-83
2022/03/15 03:41:40;;;;;;;35.83;12.82;;;;;;;;;;6254418;22;20114;-83
2022/03/15 03:44:09;;;;;;;36.03;13.05;;;;;;;;;;6317229;22;20105;-84
2022/03/15 03:46:37;;;;;;;35.30;12.27;;;;;;;;;;6264357;22;20019;-83
2022/03/15 03:49:06;;;;;;;37.75;13.48;;;;;;;;;;6254876;22;20182;-83
2022/03/15 03:51:59;;;;;;;34.67;12.70;;;;;;;;;;6184827;23;20024;-84
2022/03/15 03:54:29;;;;;;;39.70;13.43;;;;;;;;;;6167991;23;20039;-83
2022/03/15 03:56:56;;;;;;;38.15;12.55;;;;;;;;;;6181972;23;20490;-83
2022/03/15 03:59:43;;;;;;;33.95;12.35;;;;;;;;;;6192664;23;20020;-83
2022/03/15 04:02:38;;;;;;;33.85;13.02;;;;;;;;;;6207376;23;20025;-83
2022/03/15 04:05:07;;;;;;;43.55;13.43;;;;;;;;;;6158398;23;20029;-82
2022/03/15 04:07:35;;;;;;;43.25;15.07;;;;;;;;;;6211717;23;20021;-82
2022/03/15 04:10:21;;;;;;;44.85;14.70;;;;;;;;;;6165466;23;20021;-83
2022/03/15 04:12:50;;;;;;;37.22;14.07;;;;;;;;;;6181476;23;20025;-83
2022/03/15 04:15:18;;;;;;;43.58;14.43;;;;;;;;;;6217096;23;20021;-83
2022/03/15 04:17:46;;;;;;;44.97;14.45;;;;;;;;;;6192166;23;20354;-84
2022/03/15 04:20:16;;;;;;;45.95;14.48;;;;;;;;;;6217678;23;20076;-82
2022/03/15 04:22:59;;;;;;;43.50;15.48;;;;;;;;;;6175942;23;20105;-83
2022/03/15 04:25:26;;;;;;;47.05;15.20;;;;;;;;;;6179665;23;20533;-83
2022/03/15 04:27:56;;;;;;;47.90;16.42;;;;;;;;;;6180100;23;20021;-82
2022/03/15 04:30:33;;;;;;;49.28;16.10;;;;;;;;;;6188528;23;20123;-82
2022/03/15 04:33:04;;;;;;;47.95;16.17;;;;;;;;;;6156074;23;20080;-82
2022/03/15 04:35:32;;;;;;;47.38;15.18;;;;;;;;;;6196784;23;20045;-83
2022/03/15 04:38:00;;;;;;;50.65;16.73;;;;;;;;;;6185971;23;20084;-83
2022/03/15 04:40:30;;;;;;;47.78;15.93;;;;;;;;;;6184044;23;20035;-83
2022/03/15 04:43:17;;;;;;;43.17;14.63;;;;;;;;;;6180050;23;20447;-83
2022/03/15 04:45:44;;;;;;;58.38;17.38;;;;;;;;;;6189636;23;20064;-82
2022/03/15 04:48:13;;;;;;;59.42;17.77;;;;;;;;;;6178592;23;20029;-84
2022/03/15 04:50:43;;;;;;;59.28;16.60;;;;;;;;;;6199499;23;20112;-82
2022/03/15 04:53:14;;;;;;;50.35;16.83;;;;;;;;;;6182275;23;20011;-83
2022/03/15 04:55:42;;;;;;;60.40;16.95;;;;;;;;;;6232014;22;20037;-82
2022/03/15 04:58:10;;;;;;;54.45;16.88;;;;;;;;;;6193240;23;20017;-83
2022/03/15 05:00:40;;;;;;;45.85;17.00;;;;;;;;;;6159883;23;20021;-83
2022/03/15 05:03:10;;;;;;;59.50;16.80;;;;;;;;;;6156309;23;20178;-83
2022/03/15 05:05:38;;;;;;;61.40;18.15;;;;;;;;;;6156737;23;20100;-83
2022/03/15 05:08:06;;;;;;;67.95;19.10;;;;;;;;;;6191126;23;20355;-84
2022/03/15 05:13:46;;;;;;;90.05;23.45;;;;;;;;;;6202694;23;20032;-83
2022/03/15 05:16:18;;;;;;;;;;;;;;;;;;6216847;23;20049;-83
2022/03/15 05:18:54;;;;;;;80.15;20.05;;;;;;;;;;6208370;23;19993;-82
2022/03/15 05:21:36;;;;;;;86.40;22.02;;;;;;;;;;6159382;23;20029;-83
2022/03/15 05:24:04;;;;;;;95.68;25.80;;;;;;;;;;6215679;23;20017;-83
2022/03/15 05:26:32;;;;;;;90.70;23.77;;;;;;;;;;6180693;23;20056;-82
2022/03/15 05:29:03;;;;;;;81.05;22.60;;;;;;;;;;6156189;23;20032;-84
2022/03/15 05:31:39;;;;;;;91.13;21.45;;;;;;;;;;6157715;23;20482;-83
2022/03/15 05:34:06;;;;;;;81.47;21.52;;;;;;;;;;6178839;23;20307;-83
2022/03/15 05:36:34;;;;;;;83.15;22.60;;;;;;;;;;6189961;23;20080;-83
2022/03/15 05:39:04;;;;;;;85.72;23.63;;;;;;;;;;6191833;23;20763;-82
2022/03/15 05:41:40;;;;;;;83.70;22.05;;;;;;;;;;6173562;23;20008;-83
2022/03/15 05:44:08;;;;;;;88.05;22.15;;;;;;;;;;6179611;23;20013;-82
2022/03/15 05:46:36;;;;;;;91.25;23.40;;;;;;;;;;6182257;23;20035;-83
2022/03/15 05:49:08;;;;;;;89.30;23.40;;;;;;;;;;6155602;23;20394;-83
2022/03/15 05:51:46;;;;;;;90.03;22.95;;;;;;;;;;6156006;23;20035;-84
2022/03/15 05:54:13;;;;;;;87.03;22.08;;;;;;;;;;6203232;23;20099;-83
2022/03/15 05:56:42;;;;;;;92.75;22.23;;;;;;;;;;6188652;23;20048;-83
2022/03/15 05:59:11;;;;;;;92.38;22.80;;;;;;;;;;6154762;23;20438;-84
2022/03/15 06:01:45;;;;;;;78.28;22.00;;;;;;;;;;6180787;23;20032;-83
2022/03/15 06:04:13;;;;;;;75.53;19.15;;;;;;;;;;6179732;23;20406;-84
2022/03/15 06:06:41;;;;;;;85.88;20.45;;;;;;;;;;6205039;23;20044;-82
2022/03/15 06:09:10;;;;;;;69.22;19.70;;;;;;;;;;6191878;23;20017;-84
2022/03/15 06:11:39;;;;;;;89.07;21.35;;;;;;;;;;6154318;23;20062;-83
2022/03/15 06:14:07;;;;;;;76.65;21.25;;;;;;;;;;6187701;23;20152;-83
2022/03/15 06:16:35;;;;;;;76.03;21.77;;;;;;;;;;6187286;23;20032;-83
2022/03/15 06:19:06;;;;;;;81.10;19.88;;;;;;;;;;6188937;23;20083;-83
2022/03/15 06:21:52;;;;;;;77.53;20.40;;;;;;;;;;6170278;23;20044;-83
2022/03/15 06:24:19;;;;;;;64.40;19.52;;;;;;;;;;6174927;23;20021;-83
2022/03/15 06:26:47;;;;;;;74.47;19.40;;;;;;;;;;6235085;23;20021;-83
2022/03/15 06:29:20;;;;;;;70.72;19.23;;;;;;;;;;6227406;23;20036;-83
2022/03/15 06:32:51;;;;;;;74.82;19.55;;;;;;;;;;6164111;23;20036;-84
2022/03/15 06:35:19;;;;;;;61.75;18.00;;;;;;;;;;6177534;23;20796;-84
2022/03/15 06:37:50;;;;;;;59.55;19.05;;;;;;;;;;6188236;23;20068;-84
2022/03/15 06:40:27;;;;;;;77.93;20.20;;;;;;;;;;6155574;23;20048;-84
2022/03/15 06:43:21;;;;;;;75.40;18.67;;;;;;;;;;6203779;23;20456;-84
2022/03/15 06:45:49;;;;;;;69.05;18.80;;;;;;;;;;6179418;23;20157;-84
2022/03/15 06:48:17;;;;;;;61.15;17.00;;;;;;;;;;6178459;23;20025;-84
2022/03/15 06:51:04;;;;;;;60.45;17.48;;;;;;;;;;6176256;23;20025;-83
2022/03/15 06:54:11;;;;;;;54.83;16.98;;;;;;;;;;6169601;23;20089;-83
2022/03/15 06:56:40;;;;;;;58.15;18.52;;;;;;;;;;6177236;23;20025;-83
2022/03/15 06:59:10;;;;;;;62.63;17.92;;;;;;;;;;6179229;23;20029;-83
2022/03/15 07:01:42;;;;;;;57.45;16.52;;;;;;;;;;6156015;23;20115;-83
2022/03/15 07:04:13;;;;;;;59.78;16.50;;;;;;;;;;6205129;22;20027;-83
2022/03/15 07:06:41;;;;;;;49.13;14.68;;;;;;;;;;6249880;22;20027;-84
2022/03/15 07:09:23;;;;;;;64.57;15.45;;;;;;;;;;6249843;22;20024;-84
2022/03/15 07:12:27;;;;;;;52.58;15.88;;;;;;;;;;6212706;23;20163;-84
2022/03/15 07:14:55;;;;;;;55.15;15.82;;;;;;;;;;6195450;23;20197;-84
2022/03/15 07:17:23;;;;;;;62.53;17.80;;;;;;;;;;6190274;23;20054;-84
2022/03/15 07:19:57;;;;;;;68.10;17.38;;;;;;;;;;6218638;23;20211;-84
2022/03/15 07:23:30;;;;;;;51.15;16.63;;;;;;;;;;6193130;23;20420;-84
2022/03/15 07:25:57;;;;;;;56.05;17.45;;;;;;;;;;6189413;23;20028;-84
2022/03/15 07:28:49;;;;;;;46.33;17.10;;;;;;;;;;6189292;23;20113;-84
2022/03/15 07:32:01;;;;;;;59.42;15.88;;;;;;;;;;6179766;23;20025;-84
2022/03/15 07:34:30;;;;;;;56.38;17.45;;;;;;;;;;6183416;23;20446;-84
2022/03/15 07:36:57;;;;;;;50.90;16.50;;;;;;;;;;6199525;22;20050;-84
2022/03/15 07:39:32;;;;;;;50.67;17.63;;;;;;;;;;6281614;22;20024;-84
2022/03/15 07:42:49;;;;;;;48.50;16.80;;;;;;;;;;6242464;22;20023;-84
2022/03/15 07:45:15;;;;;;;43.17;16.13;;;;;;;;;;6254301;22;20058;-84
2022/03/15 07:47:43;;;;;;;50.78;16.85;;;;;;;;;;6193112;22;20077;-84
2022/03/15 07:50:21;;;;;;;52.97;17.63;;;;;;;;;;6221753;22;20069;-84
2022/03/15 07:53:51;;;;;;;48.75;16.27;;;;;;;;;;6256370;22;20503;-84
2022/03/15 07:56:19;;;;;;;52.20;17.52;;;;;;;;;;6279154;22;20085;-84
2022/03/15 07:59:12;;;;;;;49.47;16.75;;;;;;;;;;6274895;22;20019;-84
2022/03/15 08:03:01;;;;;;;42.30;13.63;;;;;;;;;;6299293;22;20016;-84
2022/03/15 08:05:29;;;;;;;42.45;16.27;;;;;;;;;;6285872;22;20486;-84
2022/03/15 08:07:57;;;;;;;41.08;15.77;;;;;;;;;;6285473;22;20098;-84
2022/03/15 08:10:40;;;;;;;46.30;15.77;;;;;;;;;;6289545;22;20035;-84
2022/03/15 08:13:29;;;;;;;52.22;16.75;;;;;;;;;;6257222;22;20451;-84
2022/03/15 08:15:57;;;;;;;46.53;16.52;;;;;;;;;;6261498;22;20092;-84
2022/03/15 08:18:36;;;;;;;47.55;16.70;;;;;;;;;;6250510;22;20019;-84
2022/03/15 08:21:57;;;;;;;56.33;19.35;;;;;;;;;;6186404;23;20025;-84
2022/03/15 08:24:52;;;;;;;55.00;18.38;;;;;;;;;;6185849;23;20432;-84
2022/03/15 08:27:19;;;;;;;51.03;19.15;;;;;;;;;;6195129;23;20032;-84
2022/03/15 08:29:55;;;;;;;51.80;18.40;;;;;;;;;;6211022;23;20028;-85
2022/03/15 08:33:11;;;;;;;48.25;18.20;;;;;;;;;;6160039;23;20359;-85
2022/03/15 08:35:39;;;;;;;54.13;19.20;;;;;;;;;;6218221;23;20025;-85
2022/03/15 08:38:08;;;;;;;54.72;20.25;;;;;;;;;;6168810;23;20069;-84
2022/03/15 08:41:06;;;;;;;45.28;18.85;;;;;;;;;;6174869;23;20047;-84
2022/03/15 08:44:22;;;;;;;44.03;16.00;;;;;;;;;;6227901;23;20024;-84
2022/03/15 08:46:50;;;;;;;48.17;18.83;;;;;;;;;;6209317;23;20095;-84
2022/03/15 08:50:01;;;;;;;47.03;19.35;;;;;;;;;;6139664;23;20028;-84
2022/03/15 08:53:01;;;;;;;46.20;18.35;;;;;;;;;;6300453;22;20034;-79
2022/03/15 08:55:29;;;;;;;44.03;18.15;;;;;;;;;;6312207;22;20465;-78
2022/03/15 08:57:57;;;;;;;46.58;18.95;;;;;;;;;;6274401;22;20027;-79
2022/03/15 09:00:25;;;;;;;42.30;16.90;;;;;;;;;;6310804;22;20015;-78
2022/03/15 09:02:53;;;;;;;45.35;17.15;;;;;;;;;;6310795;22;20019;-79
2022/03/15 09:05:21;;;;;;;38.90;17.67;;;;;;;;;;6247843;22;20093;-78
2022/03/15 09:07:53;;;;;;;39.70;17.60;;;;;;;;;;6311991;22;20061;-79
2022/03/15 09:10:23;;;;;;;47.08;18.67;;;;;;;;;;6310356;22;20015;-79
2022/03/15 09:12:53;;;;;;;34.67;15.73;;;;;;;;;;6311269;22;20144;-79
2022/03/15 09:15:23;;;;;;;33.33;14.65;;;;;;;;;;6261224;22;20085;-79
2022/03/15 09:17:51;;;;;;;32.40;14.65;;;;;;;;;;6285671;22;20023;-79
2022/03/15 09:20:25;;;;;;;29.17;14.10;;;;;;;;;;6312754;22;20019;-79
2022/03/15 09:22:56;;;;;;;30.27;15.02;;;;;;;;;;6285451;22;20627;-80
2022/03/15 09:25:25;;;;;;;32.67;14.05;;;;;;;;;;6311030;22;20019;-79
2022/03/15 09:27:53;;;;;;;28.10;13.73;;;;;;;;;;6312220;22;20023;-79
2022/03/15 09:30:22;;;;;;;29.52;14.88;;;;;;;;;;6314212;22;20149;-79
2022/03/15 09:32:50;;;;;;;33.40;15.07;;;;;;;;;;6315964;22;20096;-81
2022/03/15 09:35:19;;;;;;;30.08;14.75;;;;;;;;;;6315033;22;20019;-81
2022/03/15 09:37:49;;;;;;;34.05;14.57;;;;;;;;;;6317989;22;20034;-82
2022/03/15 09:40:21;;;;;;;30.13;14.98;;;;;;;;;;6295936;22;20021;-82
2022/03/15 09:42:50;;;;;;;30.80;14.57;;;;;;;;;;6324692;22;20005;-79
2022/03/15 09:45:21;;;;;;;33.38;14.75;;;;;;;;;;6318029;22;20019;-80
2022/03/15 09:47:53;;;;;;;33.28;15.50;;;;;;;;;;6313473;22;20049;-79
2022/03/15 09:50:24;;;;;;;29.73;14.52;;;;;;;;;;6287056;22;20068;-79
2022/03/15 09:52:58;;;;;;;26.02;13.48;;;;;;;;;;6284993;22;20023;-79
2022/03/15 09:55:27;;;;;;;27.40;13.07;;;;;;;;;;6284914;22;20047;-78
2022/03/15 09:57:54;;;;;;;28.25;13.90;;;;;;;;;;6285624;22;20042;-79
2022/03/15 10:00:23;;;;;;;28.08;13.10;;;;;;;;;;6285209;22;20019;-80
2022/03/15 10:02:50;;;;;;;30.25;14.23;;;;;;;;;;6284848;22;20389;-79
2022/03/15 10:05:19;;;;;;;33.85;15.40;;;;;;;;;;6313435;22;20023;-79
2022/03/15 10:07:47;;;;;;;32.53;15.52;;;;;;;;;;6310407;22;20029;-79
2022/03/15 10:10:15;;;;;;;32.00;16.88;;;;;;;;;;6284177;22;20067;-79
2022/03/15 10:12:42;;;;;;;36.47;15.82;;;;;;;;;;6312786;22;20023;-79
2022/03/15 10:15:14;;;;;;;32.47;14.40;;;;;;;;;;6311255;22;20021;-79
2022/03/15 10:17:44;;;;;;;34.10;14.35;;;;;;;;;;6310692;22;20037;-79
2022/03/15 10:20:18;;;;;;;32.13;13.90;;;;;;;;;;6275295;22;20019;-79
2022/03/15 10:22:51;;;;;;;26.48;13.27;;;;;;;;;;6313726;22;20026;-79
2022/03/15 10:25:22;;;;;;;29.42;12.43;;;;;;;;;;6275116;22;20038;-80
2022/03/15 10:27:55;;;;;;;23.10;11.60;;;;;;;;;;6286717;22;20043;-79
2022/03/15 10:30:24;;;;;;;24.90;12.25;;;;;;;;;;6312531;22;20019;-79
2022/03/15 10:32:54;;;;;;;27.52;10.98;;;;;;;;;;6312640;22;20064;-79
2022/03/15 10:35:26;;;;;;;21.05;10.98;;;;;;;;;;6314040;22;20023;-79
2022/03/15 10:37:55;;;;;;;26.35;11.18;;;;;;;;;;6313879;22;20015;-79
2022/03/15 10:40:39;;;;;;;23.15;10.43;;;;;;;;;;6313392;22;20015;-79
2022/03/15 10:43:14;;;;;;;22.85;11.15;;;;;;;;;;6312669;22;20019;-79
2022/03/15 10:45:45;;;;;;;20.10;10.43;;;;;;;;;;6312229;22;20015;-81
2022/03/15 10:48:20;;;;;;;19.52;10.52;;;;;;;;;;6312174;22;20098;-79
2022/03/15 10:51:09;;;;;;;21.45;10.73;;;;;;;;;;6311806;22;20045;-79
2022/03/15 10:53:42;;;;;;;25.25;11.10;;;;;;;;;;6285309;22;20031;-79
2022/03/15 10:56:17;;;;;;;24.55;10.93;;;;;;;;;;6284054;22;20011;-79
2022/03/15 10:58:54;;;;;;;23.25;9.52;;;;;;;;;;6285354;22;20039;-79
2022/03/15 11:01:25;;;;;;;20.95;8.73;;;;;;;;;;6284181;22;20022;-79
2022/03/15 11:04:04;;;;;;;21.80;9.63;;;;;;;;;;6284319;22;20023;-79
2022/03/15 11:06:44;;;;;;;18.15;8.50;;;;;;;;;;6274034;22;20105;-79
2022/03/15 11:09:21;;;;;;;18.30;8.50;;;;;;;;;;6311047;22;20026;-79
2022/03/15 11:12:03;;;;;;;18.75;8.23;;;;;;;;;;6285342;22;20015;-79
2022/03/15 11:14:41;;;;;;;18.17;8.30;;;;;;;;;;6284667;22;20091;-79
2022/03/15 11:17:16;;;;;;;22.85;7.82;;;;;;;;;;6310961;22;20023;-79
2022/03/15 11:19:46;;;;;;;22.95;7.57;;;;;;;;;;6311793;22;20370;-80
2022/03/15 11:22:15;;;;;;;15.68;7.43;;;;;;;;;;6284680;22;20023;-79
2022/03/15 11:25:06;;;;;;;16.88;7.28;;;;;;;;;;6284691;22;20076;-79
2022/03/15 11:27:41;;;;;;;13.52;6.90;;;;;;;;;;6311804;22;20076;-80
2022/03/15 11:30:14;;;;;;;17.45;7.13;;;;;;;;;;6284342;22;20015;-79
2022/03/15 11:32:44;;;;;;;22.58;7.25;;;;;;;;;;6311345;22;20517;-79
2022/03/15 11:35:22;;;;;;;17.80;6.32;;;;;;;;;;6313704;22;20717;-79
2022/03/15 11:37:52;;;;;;;19.83;6.75;;;;;;;;;;6327570;22;20189;-79
2022/03/15 11:40:21;;;;;;;16.40;5.82;;;;;;;;;;6327662;22;20015;-79
2022/03/15 11:42:57;;;;;;;16.48;6.65;;;;;;;;;;6313727;22;20781;-79
2022/03/15 11:45:37;;;;;;;18.90;7.13;;;;;;;;;;6311897;22;20019;-79
2022/03/15 11:48:08;;;;;;;15.40;6.70;;;;;;;;;;6309983;22;20015;-79
2022/03/15 11:51:08;;;;;;;17.98;7.55;;;;;;;;;;6312531;22;20021;-80
2022/03/15 11:53:49;;;;;;;13.27;6.60;;;;;;;;;;6310293;22;20315;-79
2022/03/15 11:56:30;;;;;;;21.60;7.32;;;;;;;;;;6281184;22;20110;-78
2022/03/15 11:59:00;;;;;;;17.05;6.45;;;;;;;;;;6282868;22;20019;-78
2022/03/15 12:01:30;;;;;;;15.93;7.10;;;;;;;;;;6309501;22;20161;-79
2022/03/15 12:03:59;;;;;;;12.50;5.97;;;;;;;;;;6310350;22;20023;-79
2022/03/15 12:06:32;;;;;;;13.20;6.13;;;;;;;;;;6258035;22;20027;-79
2022/03/15 12:09:04;;;;;;;15.48;6.93;;;;;;;;;;6311739;22;20687;-79
2022/03/15 12:11:37;;;;;;;13.52;6.25;;;;;;;;;;6311576;22;20030;-80
2022/03/15 12:14:19;;;;;;;15.52;6.53;;;;;;;;;;6311878;22;20011;-79
2022/03/15 12:16:50;;;;;;;13.80;6.43;;;;;;;;;;6311515;22;20038;-78
2022/03/15 12:21:57;;;;;;;16.92;6.18;;;;;;;;;;6313728;22;20327;-78
2022/03/15 12:24:35;;;;;;;15.75;6.22;;;;;;;;;;6283835;22;20019;-78
2022/03/15 12:27:06;;;;;;;18.50;6.22;;;;;;;;;;6311476;22;20043;-78
2022/03/15 12:29:38;;;;;;;18.85;6.55;;;;;;;;;;6311743;22;20160;-79
2022/03/15 12:32:14;;;;;;;15.95;6.00;;;;;;;;;;6310435;22;20046;-79
2022/03/15 12:34:44;;;;;;;20.30;6.72;;;;;;;;;;6311343;22;20518;-79
2022/03/15 12:37:13;;;;;;;16.83;6.18;;;;;;;;;;6285406;22;20026;-79
2022/03/15 12:39:41;;;;;;;17.58;6.63;;;;;;;;;;6274338;22;20078;-79
2022/03/15 12:42:24;;;;;;;14.40;6.63;;;;;;;;;;6286235;22;20027;-78
2022/03/15 12:45:17;;;;;;;;;;;;;;;;;;;;;
2022/03/15 12:48:17;;;;;;;17.45;6.47;;;;;;;;;;6273752;22;20031;-79
2022/03/15 12:51:05;;;;;;;13.68;5.20;;;;;;;;;;6252798;22;20023;-78
2022/03/15 12:54:13;;;;;;;13.02;5.00;;;;;;;;;;6279437;22;20019;-85
2022/03/15 12:57:07;;;;;;;14.68;4.93;;;;;;;;;;6256641;22;20047;-84
2022/03/15 13:00:02;;;;;;;13.50;4.72;;;;;;;;;;6259391;22;20027;-84
2022/03/15 13:02:42;;;;;;;13.70;5.40;;;;;;;;;;6277495;22;20027;-82
2022/03/15 13:05:15;;;;;;;13.05;4.97;;;;;;;;;;6316014;22;20019;-82
2022/03/15 13:07:46;;;;;;;12.88;5.00;;;;;;;;;;6316415;22;20029;-82
2022/03/15 13:10:14;;;;;;;12.93;5.32;;;;;;;;;;6287690;22;20011;-82
2022/03/15 13:12:43;;;;;;;15.15;4.97;;;;;;;;;;6315317;22;20023;-82
2022/03/15 13:15:19;;;;;;;16.58;5.80;;;;;;;;;;6288134;22;20064;-82
2022/03/15 13:17:55;;;;;;;15.55;5.75;;;;;;;;;;6313386;22;20071;-82
2022/03/15 13:20:35;;;;;;;17.70;5.78;;;;;;;;;;6250056;22;20019;-82
2022/03/15 13:23:06;;;;;;;16.75;5.55;;;;;;;;;;6316120;22;20015;-82
2022/03/15 13:25:46;;;;;;;17.90;6.28;;;;;;;;;;6287601;22;20030;-82
2022/03/15 13:28:24;;;;;;;14.35;5.78;;;;;;;;;;6276924;22;20448;-82
2022/03/15 13:30:55;;;;;;;15.57;5.78;;;;;;;;;;6314910;22;20443;-82
2022/03/15 13:33:53;;;;;;;19.75;6.10;;;;;;;;;;6286369;22;20461;-83
2022/03/15 13:36:22;;;;;;;15.95;6.18;;;;;;;;;;6313442;22;20669;-82
2022/03/15 13:38:52;;;;;;;20.70;7.70;;;;;;;;;;6315033;22;20019;-82
2022/03/15 13:41:24;;;;;;;14.15;5.95;;;;;;;;;;6286866;22;20018;-82
2022/03/15 13:43:56;;;;;;;18.88;6.43;;;;;;;;;;6278191;22;20023;-82
2022/03/15 13:46:34;;;;;;;23.23;6.65;;;;;;;;;;6314415;22;20015;-82
2022/03/15 13:49:26;;;;;;;16.23;6.30;;;;;;;;;;6315677;22;20023;-82
2022/03/15 13:52:06;;;;;;;17.92;7.10;;;;;;;;;;6305960;22;20407;-82
2022/03/15 13:54:59;;;;;;;17.98;7.30;;;;;;;;;;6314990;22;20019;-82
2022/03/15 13:57:40;;;;;;;17.30;7.05;;;;;;;;;;6314626;22;20098;-82
2022/03/15 14:00:18;;;;;;;16.55;7.60;;;;;;;;;;6277007;22;20423;-83
2022/03/15 14:02:49;;;;;;;20.90;7.95;;;;;;;;;;6314843;22;20431;-82
2022/03/15 14:05:24;;;;;;;16.70;6.63;;;;;;;;;;6331143;22;20019;-82
2022/03/15 14:08:09;;;;;;;20.15;7.85;;;;;;;;;;6320227;22;20124;-82
2022/03/15 14:10:36;;;;;;;18.65;7.30;;;;;;;;;;6313981;22;20022;-82
2022/03/15 14:13:14;;;;;;;24.38;7.78;;;;;;;;;;6315317;22;20439;-80
2022/03/15 14:15:42;;;;;;;21.58;7.32;;;;;;;;;;6289208;22;20015;-82
2022/03/15 14:18:24;;;;;;;16.95;7.07;;;;;;;;;;6315945;22;20046;-82
2022/03/15 14:20:52;;;;;;;17.42;6.82;;;;;;;;;;6289209;22;20030;-82
2022/03/15 14:23:20;;;;;;;18.98;7.50;;;;;;;;;;6279833;22;20019;-84
2022/03/15 14:25:50;;;;;;;16.48;7.25;;;;;;;;;;6314443;22;20114;-83
2022/03/15 14:28:20;;;;;;;22.63;7.05;;;;;;;;;;6313726;22;20019;-83
2022/03/15 14:31:03;;;;;;;16.48;7.25;;;;;;;;;;6281950;22;20023;-84
2022/03/15 14:33:33;;;;;;;19.75;6.72;;;;;;;;;;6283769;22;20480;-83
2022/03/15 14:36:27;;;;;;;18.85;7.43;;;;;;;;;;6273889;22;20049;-83
2022/03/15 14:38:56;;;;;;;18.38;7.18;;;;;;;;;;6284148;22;20019;-85
2022/03/15 14:41:24;;;;;;;20.42;6.57;;;;;;;;;;6249402;22;20035;-83
2022/03/15 14:43:56;;;;;;;14.65;6.63;;;;;;;;;;6314510;22;20029;-84
2022/03/15 14:46:27;;;;;;;17.00;6.03;;;;;;;;;;6312507;22;20403;-85
2022/03/15 14:48:54;;;;;;;16.65;6.68;;;;;;;;;;6286869;22;20122;-83
2022/03/15 14:51:24;;;;;;;18.73;7.30;;;;;;;;;;6286878;22;20015;-82
2022/03/15 14:53:55;;;;;;;20.50;6.70;;;;;;;;;;6313504;22;20125;-82
2022/03/15 14:56:23;;;;;;;17.38;6.47;;;;;;;;;;6287817;22;20102;-82
2022/03/15 14:58:51;;;;;;;17.00;7.15;;;;;;;;;;6314334;22;20019;-82
2022/03/15 15:01:20;;;;;;;21.48;6.60;;;;;;;;;;6314236;22;20022;-83
2022/03/15 15:03:51;;;;;;;18.40;7.38;;;;;;;;;;6283100;22;20015;-79
2022/03/15 15:06:22;;;;;;;15.45;7.28;;;;;;;;;;6307423;22;20438;-78
2022/03/15 15:08:52;;;;;;;24.70;8.95;;;;;;;;;;6307664;22;20083;-79
2022/03/15 15:11:26;;;;;;;24.13;7.95;;;;;;;;;;6307658;22;20064;-79
2022/03/15 15:13:56;;;;;;;20.33;8.27;;;;;;;;;;6272476;22;20023;-79
2022/03/15 15:16:28;;;;;;;16.70;7.28;;;;;;;;;;6308015;22;20345;-78